Time;durP1;ratioP1;P1;durP2;ratioP2;P2;SDS_P1;SDS_P2;PMS_P1;PMS_P2;Temp;Humidity;BMP_temperature;BMP_pressure;BME280_temperature;BME280_humidity;BME280_pressure;Samples;Min_cycle;Max_cycle;Signal;HPM_P1;HPM_P2
2022/08/29 00:00:02;;;;;;;11.90;10.70;;;16.20;99.90;;;;;;5091623;28;20804;-88
2022/08/29 00:02:29;;;;;;;13.10;11.77;;;16.10;99.90;;;;;;5099516;28;20211;-87
2022/08/29 00:04:56;;;;;;;12.40;10.70;;;16.20;99.90;;;;;;5094752;28;22242;-88
2022/08/29 00:07:23;;;;;;;16.00;12.15;;;16.20;99.90;;;;;;5096635;28;20227;-87
2022/08/29 00:09:50;;;;;;;13.60;11.70;;;16.30;99.90;;;;;;5093528;28;20224;-87
2022/08/29 00:12:19;;;;;;;12.32;11.05;;;16.20;99.90;;;;;;5097277;28;20229;-88
2022/08/29 00:14:46;;;;;;;12.55;11.25;;;16.20;99.90;;;;;;5098380;28;20224;-87
2022/08/29 00:17:13;;;;;;;12.02;10.82;;;16.30;99.90;;;;;;5101370;28;20232;-87
2022/08/29 00:19:39;;;;;;;13.45;11.43;;;16.00;99.90;;;;;;5102555;28;20318;-87
2022/08/29 00:22:06;;;;;;;11.63;10.43;;;15.90;99.90;;;;;;5094307;28;20230;-87
2022/08/29 00:24:33;;;;;;;11.82;10.63;;;15.80;99.90;;;;;;5093855;28;20235;-87
2022/08/29 00:27:00;;;;;;;13.15;10.60;;;15.80;99.90;;;;;;5098065;28;20243;-88
2022/08/29 00:29:30;;;;;;;12.52;10.63;;;15.80;99.90;;;;;;5094865;28;20311;-87
2022/08/29 00:31:57;;;;;;;11.73;10.52;;;15.90;99.90;;;;;;5101139;28;20228;-87
2022/08/29 00:34:23;;;;;;;12.75;11.25;;;15.80;99.90;;;;;;5091455;28;20703;-88
2022/08/29 00:36:51;;;;;;;11.70;10.50;;;15.70;99.90;;;;;;5093661;28;20238;-87
2022/08/29 00:39:18;;;;;;;12.05;10.93;;;15.60;99.90;;;;;;5099993;28;20232;-87
2022/08/29 00:41:45;;;;;;;12.45;10.75;;;15.60;99.90;;;;;;5087111;28;20293;-88
2022/08/29 00:44:12;;;;;;;14.05;10.55;;;15.50;99.90;;;;;;5095511;28;20235;-87
2022/08/29 00:46:49;;;;;;;11.13;10.02;;;15.40;99.90;;;;;;5100831;28;20235;-87
2022/08/29 00:49:32;;;;;;;11.93;10.02;;;15.50;99.90;;;;;;5090891;28;20219;-88
2022/08/29 00:52:02;;;;;;;12.68;9.60;;;15.60;99.90;;;;;;5101854;28;20216;-86
2022/08/29 00:54:30;;;;;;;11.27;10.07;;;15.60;99.90;;;;;;5109664;28;20234;-87
2022/08/29 00:56:58;;;;;;;11.73;9.60;;;15.40;99.90;;;;;;5096036;28;20233;-88
2022/08/29 00:59:31;;;;;;;10.98;9.57;;;15.30;99.90;;;;;;5095876;28;20751;-88
2022/08/29 01:02:00;;;;;;;12.02;9.13;;;15.30;99.90;;;;;;5097115;28;20219;-87
2022/08/29 01:04:27;;;;;;;11.27;10.02;;;15.30;99.90;;;;;;5102216;28;20595;-87
2022/08/29 01:06:54;;;;;;;10.55;9.48;;;15.40;99.90;;;;;;5092769;28;20220;-87
2022/08/29 01:09:22;;;;;;;10.30;9.23;;;15.60;99.90;;;;;;5097562;28;20767;-88
2022/08/29 01:14:34;;;;;;;9.88;8.63;;;15.50;99.90;;;;;;5091317;28;20982;-87
2022/08/29 01:17:04;;;;;;;9.57;8.68;;;15.30;99.90;;;;;;5096749;28;20219;-87
2022/08/29 01:19:42;;;;;;;12.50;9.13;;;15.40;99.90;;;;;;5102133;28;20758;-88
2022/08/29 01:22:18;;;;;;;9.88;8.73;;;15.50;99.90;;;;;;5103177;28;20219;-88
2022/08/29 01:24:49;;;;;;;9.60;8.70;;;15.50;99.90;;;;;;5099874;28;20234;-88
2022/08/29 01:27:18;;;;;;;9.43;8.40;;;15.40;99.90;;;;;;5097537;28;20232;-87
2022/08/29 01:29:45;;;;;;;8.90;7.85;;;15.20;99.90;;;;;;5097772;27;20208;-87
2022/08/29 01:32:12;;;;;;;10.63;8.73;;;15.10;99.90;;;;;;5093477;28;20220;-87
2022/08/29 01:34:40;;;;;;;12.25;8.52;;;15.10;99.90;;;;;;5101716;28;20238;-88
2022/08/29 01:37:13;;;;;;;9.75;8.90;;;15.10;99.90;;;;;;5090226;28;20311;-88
2022/08/29 01:39:42;;;;;;;10.25;8.90;;;15.10;99.90;;;;;;5090164;28;20216;-87
2022/08/29 01:42:13;;;;;;;9.88;8.98;;;14.90;99.90;;;;;;5094203;28;20231;-88
2022/08/29 01:44:41;;;;;;;13.85;9.23;;;15.20;99.90;;;;;;5094534;28;20605;-87
2022/08/29 01:47:10;;;;;;;9.10;7.90;;;15.40;99.90;;;;;;5099329;28;20223;-88
2022/08/29 01:49:37;;;;;;;8.95;8.05;;;15.40;99.90;;;;;;5083410;28;20216;-87
2022/08/29 01:52:05;;;;;;;9.48;8.57;;;15.20;99.90;;;;;;5096315;28;20626;-87
2022/08/29 01:54:34;;;;;;;9.35;7.97;;;15.10;99.90;;;;;;5095644;28;20227;-87
2022/08/29 01:57:01;;;;;;;9.05;7.82;;;15.00;99.90;;;;;;5102670;27;20265;-88
2022/08/29 01:59:31;;;;;;;10.35;8.43;;;15.10;99.90;;;;;;5091638;28;20220;-88
2022/08/29 02:02:02;;;;;;;8.68;7.88;;;15.10;99.90;;;;;;5093226;28;20622;-88
2022/08/29 02:04:29;;;;;;;8.43;7.63;;;15.20;99.90;;;;;;5097991;28;20228;-87
2022/08/29 02:06:55;;;;;;;9.32;7.68;;;15.20;99.90;;;;;;5090247;28;20595;-87
2022/08/29 02:09:23;;;;;;;8.50;7.70;;;15.10;99.90;;;;;;5093641;28;20223;-88
2022/08/29 02:11:49;;;;;;;8.30;7.45;;;14.90;99.90;;;;;;5095104;28;20219;-88
2022/08/29 02:14:16;;;;;;;8.05;7.25;;;14.80;99.90;;;;;;5099283;28;20594;-87
2022/08/29 02:16:45;;;;;;;8.38;7.53;;;14.80;99.90;;;;;;5095457;28;20254;-88
2022/08/29 02:19:11;;;;;;;8.30;7.43;;;14.90;99.90;;;;;;5101250;28;20616;-88
2022/08/29 02:21:39;;;;;;;7.95;7.25;;;15.00;99.90;;;;;;5100425;28;20228;-88
2022/08/29 02:24:06;;;;;;;7.63;6.88;;;14.90;99.90;;;;;;5085810;28;20220;-88
2022/08/29 02:26:33;;;;;;;9.07;7.50;;;14.80;99.90;;;;;;5088395;28;20648;-88
2022/08/29 02:29:00;;;;;;;8.32;7.38;;;14.90;99.90;;;;;;5103106;28;20238;-88
2022/08/29 02:31:27;;;;;;;7.00;6.40;;;15.10;99.90;;;;;;5089376;28;20784;-87
2022/08/29 02:33:55;;;;;;;7.55;6.85;;;15.10;99.90;;;;;;5099251;28;20227;-88
2022/08/29 02:36:22;;;;;;;8.15;6.38;;;15.00;99.90;;;;;;5088955;28;20221;-87
2022/08/29 02:38:53;;;;;;;8.23;7.43;;;14.90;99.90;;;;;;5087968;28;20717;-87
2022/08/29 02:41:19;;;;;;;11.63;6.88;;;14.70;99.90;;;;;;5097884;28;20219;-87
2022/08/29 02:43:46;;;;;;;9.75;6.32;;;14.60;99.90;;;;;;5099486;28;20220;-87
2022/08/29 02:46:16;;;;;;;7.85;7.03;;;14.60;99.90;;;;;;5105194;28;20232;-87
2022/08/29 02:48:44;;;;;;;7.43;6.72;;;14.60;99.90;;;;;;5090475;28;20223;-87
2022/08/29 02:51:19;;;;;;;7.75;6.47;;;14.60;99.90;;;;;;5096587;28;20691;-87
2022/08/29 02:53:46;;;;;;;6.80;6.20;;;14.80;99.90;;;;;;5096261;28;20277;-87
2022/08/29 02:56:14;;;;;;;8.98;6.50;;;15.00;99.90;;;;;;5089896;27;20228;-87
2022/08/29 02:58:41;;;;;;;7.43;6.30;;;15.10;99.90;;;;;;5093400;28;20747;-87
2022/08/29 03:01:08;;;;;;;7.10;6.40;;;15.20;99.90;;;;;;5094771;28;20215;-87
2022/08/29 03:03:35;;;;;;;6.53;5.90;;;15.20;99.90;;;;;;5088393;28;20228;-87
2022/08/29 03:06:02;;;;;;;7.25;5.78;;;15.20;99.90;;;;;;5095243;28;20587;-87
2022/08/29 03:08:30;;;;;;;7.53;5.75;;;15.00;99.90;;;;;;5091366;28;20212;-87
2022/08/29 03:10:57;;;;;;;6.82;6.22;;;14.80;99.90;;;;;;5097661;28;20709;-88
2022/08/29 03:13:24;;;;;;;6.63;5.90;;;14.70;99.90;;;;;;5097589;28;20219;-88
2022/08/29 03:15:51;;;;;;;5.80;5.20;;;14.60;99.90;;;;;;5095999;28;20207;-87
2022/08/29 03:18:19;;;;;;;7.45;5.90;;;14.70;99.90;;;;;;5096990;28;20580;-87
2022/08/29 03:20:46;;;;;;;6.75;6.15;;;14.60;99.90;;;;;;5098112;28;20227;-88
2022/08/29 03:23:16;;;;;;;6.28;5.68;;;14.60;99.90;;;;;;5098017;28;20731;-87
2022/08/29 03:25:45;;;;;;;6.80;6.05;;;14.60;99.90;;;;;;5090802;28;20243;-87
2022/08/29 03:28:11;;;;;;;6.75;5.93;;;14.70;99.90;;;;;;5095172;28;20212;-87
2022/08/29 03:30:39;;;;;;;7.88;6.15;;;14.80;99.90;;;;;;5090909;28;20223;-88
2022/08/29 03:33:05;;;;;;;7.22;6.00;;;15.00;99.90;;;;;;5092222;28;20618;-88
2022/08/29 03:35:32;;;;;;;6.97;6.30;;;14.80;99.90;;;;;;5096224;28;20724;-87
2022/08/29 03:38:00;;;;;;;7.35;5.40;;;14.70;99.90;;;;;;5089585;28;20629;-87
2022/08/29 03:40:29;;;;;;;8.40;6.00;;;14.50;99.90;;;;;;5102330;28;20215;-87
2022/08/29 03:43:02;;;;;;;6.25;5.50;;;14.50;99.90;;;;;;5099018;28;20211;-87
2022/08/29 03:45:28;;;;;;;6.95;5.47;;;14.50;99.90;;;;;;5094588;28;20215;-87
2022/08/29 03:47:55;;;;;;;6.13;5.63;;;14.40;99.90;;;;;;5088445;28;20220;-88
2022/08/29 03:50:25;;;;;;;6.45;5.85;;;14.30;99.90;;;;;;5095825;28;20227;-87
2022/08/29 03:52:52;;;;;;;6.57;5.93;;;14.30;99.90;;;;;;5098588;28;20637;-87
2022/08/29 03:55:19;;;;;;;8.68;6.05;;;14.20;99.90;;;;;;5105224;28;20228;-87
2022/08/29 03:57:46;;;;;;;6.13;5.55;;;14.20;99.90;;;;;;5092982;28;20227;-87
2022/08/29 04:00:17;;;;;;;6.85;5.57;;;14.30;99.90;;;;;;5106022;28;20226;-87
2022/08/29 04:02:45;;;;;;;7.68;5.60;;;14.40;99.90;;;;;;5099572;28;20231;-87
2022/08/29 04:05:13;;;;;;;8.13;5.70;;;14.40;99.90;;;;;;5093424;28;20599;-87
2022/08/29 04:07:44;;;;;;;6.35;5.72;;;14.40;99.90;;;;;;5100565;28;20543;-87
2022/08/29 04:10:14;;;;;;;6.70;6.05;;;14.30;99.90;;;;;;5101323;28;20682;-87
2022/08/29 04:12:40;;;;;;;6.70;6.00;;;14.20;99.90;;;;;;5094109;28;20216;-87
2022/08/29 04:15:08;;;;;;;11.15;6.28;;;14.20;99.90;;;;;;5094769;28;20618;-88
2022/08/29 04:17:42;;;;;;;6.05;5.28;;;14.20;99.90;;;;;;5099851;28;21633;-87
2022/08/29 04:20:11;;;;;;;6.72;6.13;;;14.10;99.90;;;;;;5092262;28;20707;-87
2022/08/29 04:22:43;;;;;;;6.50;5.90;;;14.20;99.90;;;;;;5098988;28;20232;-87
2022/08/29 04:25:13;;;;;;;6.20;4.72;;;14.30;99.90;;;;;;5105514;28;20725;-87
2022/08/29 04:27:41;;;;;;;6.85;6.15;;;14.40;99.90;;;;;;5100795;28;20295;-88
2022/08/29 04:30:11;;;;;;;7.68;6.22;;;14.40;99.90;;;;;;5100468;28;20751;-87
2022/08/29 04:32:38;;;;;;;6.93;5.85;;;14.50;99.90;;;;;;5103599;28;20216;-87
2022/08/29 04:35:08;;;;;;;8.43;4.90;;;14.50;99.90;;;;;;5098220;28;20741;-87
2022/08/29 04:37:35;;;;;;;7.50;5.97;;;14.50;99.90;;;;;;5103008;28;20233;-87
2022/08/29 04:40:02;;;;;;;5.80;5.30;;;14.40;99.90;;;;;;5096023;28;20212;-87
2022/08/29 04:42:29;;;;;;;5.93;5.43;;;14.30;99.90;;;;;;5101260;28;20224;-87
2022/08/29 04:44:57;;;;;;;5.60;5.10;;;14.40;99.90;;;;;;5089376;28;20369;-87
2022/08/29 04:47:24;;;;;;;6.50;5.68;;;14.60;99.90;;;;;;5095199;28;20220;-88
2022/08/29 04:49:55;;;;;;;12.48;5.60;;;14.70;99.90;;;;;;5102801;28;20231;-87
2022/08/29 04:52:23;;;;;;;9.05;6.20;;;14.60;99.90;;;;;;5102142;28;20220;-87
2022/08/29 04:54:50;;;;;;;6.00;4.82;;;14.50;99.90;;;;;;5103132;28;20223;-87
2022/08/29 04:57:17;;;;;;;6.57;5.85;;;14.40;99.90;;;;;;5099299;28;20224;-87
2022/08/29 04:59:52;;;;;;;8.43;5.90;;;14.50;99.90;;;;;;5102512;28;20227;-87
2022/08/29 05:02:19;;;;;;;6.05;5.45;;;14.50;99.90;;;;;;5097810;28;20231;-87
2022/08/29 05:04:51;;;;;;;6.78;6.00;;;14.50;99.90;;;;;;5097439;28;20319;-88
2022/08/29 05:07:30;;;;;;;7.38;5.55;;;14.70;99.90;;;;;;5096875;28;20224;-87
2022/08/29 05:09:59;;;;;;;5.80;5.28;;;14.90;99.90;;;;;;5095299;28;20242;-88
2022/08/29 05:12:35;;;;;;;6.68;5.38;;;14.80;99.90;;;;;;5090003;28;20235;-87
2022/08/29 05:15:03;;;;;;;7.00;5.70;;;14.80;99.90;;;;;;5096124;28;20259;-87
2022/08/29 05:17:35;;;;;;;7.15;5.80;;;14.90;99.90;;;;;;5096359;27;20698;-87
2022/08/29 05:20:06;;;;;;;6.05;5.45;;;15.00;99.90;;;;;;5090690;28;20223;-87
2022/08/29 05:22:37;;;;;;;6.18;5.55;;;15.00;99.90;;;;;;5089703;27;20306;-86
2022/08/29 05:25:05;;;;;;;5.95;5.35;;;14.90;99.90;;;;;;5088586;28;20219;-87
2022/08/29 05:27:32;;;;;;;6.75;5.50;;;15.00;99.90;;;;;;5089282;27;20215;-87
2022/08/29 05:29:58;;;;;;;6.78;5.65;;;15.10;99.90;;;;;;5090439;28;20220;-88
2022/08/29 05:32:25;;;;;;;5.30;4.80;;;15.00;99.90;;;;;;5092293;28;20227;-87
2022/08/29 05:34:54;;;;;;;5.68;4.70;;;15.00;99.90;;;;;;5098807;28;20901;-87
2022/08/29 05:37:21;;;;;;;6.63;5.25;;;15.00;99.90;;;;;;5095425;28;20297;-87
2022/08/29 05:39:50;;;;;;;7.18;5.28;;;15.20;99.90;;;;;;5087395;28;20686;-86
2022/08/29 05:42:20;;;;;;;9.02;5.35;;;15.20;99.90;;;;;;5096689;28;20224;-86
2022/08/29 05:44:48;;;;;;;9.68;5.45;;;15.20;99.90;;;;;;5094755;28;20223;-86
2022/08/29 05:47:16;;;;;;;6.53;5.72;;;15.10;99.90;;;;;;5092994;28;20220;-86
2022/08/29 05:49:44;;;;;;;7.47;5.43;;;15.10;99.90;;;;;;5090430;28;20230;-87
2022/08/29 05:52:13;;;;;;;6.13;5.53;;;15.20;99.90;;;;;;5101256;28;20584;-86
2022/08/29 05:54:42;;;;;;;10.05;5.85;;;15.40;99.90;;;;;;5100048;28;20640;-86
2022/08/29 05:57:12;;;;;;;7.45;5.53;;;15.60;99.90;;;;;;5101401;28;20698;-87
2022/08/29 05:59:40;;;;;;;7.45;5.57;;;15.70;99.90;;;;;;5097503;28;20235;-86
2022/08/29 06:02:09;;;;;;;6.57;5.75;;;15.60;99.90;;;;;;5098972;28;20639;-86
2022/08/29 06:04:36;;;;;;;7.13;5.40;;;15.60;99.90;;;;;;5095670;28;20616;-87
2022/08/29 06:07:04;;;;;;;6.68;5.72;;;15.70;99.90;;;;;;5089679;28;20257;-86
2022/08/29 06:09:31;;;;;;;6.75;5.97;;;15.60;99.90;;;;;;5094306;27;20224;-87
2022/08/29 06:11:58;;;;;;;8.82;5.88;;;15.70;99.90;;;;;;5102282;28;20223;-87
2022/08/29 06:14:26;;;;;;;6.18;5.63;;;15.70;99.90;;;;;;5096444;28;20718;-86
2022/08/29 06:16:54;;;;;;;8.48;6.18;;;15.80;99.90;;;;;;5099056;28;20219;-87
2022/08/29 06:19:21;;;;;;;9.13;6.13;;;16.00;99.90;;;;;;5093930;28;20225;-87
2022/08/29 06:21:50;;;;;;;7.13;5.82;;;16.00;99.90;;;;;;5099923;28;20255;-86
2022/08/29 06:24:17;;;;;;;6.22;5.40;;;16.10;99.90;;;;;;5096736;28;20665;-86
2022/08/29 06:26:44;;;;;;;8.45;5.97;;;16.20;99.90;;;;;;5093417;28;20311;-86
2022/08/29 06:29:13;;;;;;;6.38;5.68;;;16.30;99.90;;;;;;5097458;28;20224;-87
2022/08/29 06:31:42;;;;;;;8.43;5.60;;;16.30;99.90;;;;;;5099693;28;20577;-86
2022/08/29 06:34:09;;;;;;;6.18;5.57;;;16.40;99.90;;;;;;5099538;28;20218;-87
2022/08/29 06:36:38;;;;;;;6.72;5.82;;;16.40;99.90;;;;;;5094164;28;20228;-86
2022/08/29 06:39:07;;;;;;;7.60;5.53;;;16.50;99.90;;;;;;5096691;28;20691;-86
2022/08/29 06:41:34;;;;;;;6.45;5.70;;;16.60;99.90;;;;;;5096937;28;20670;-87
2022/08/29 06:44:02;;;;;;;6.78;5.80;;;16.70;99.90;;;;;;5095817;28;20235;-87
2022/08/29 06:46:30;;;;;;;6.75;5.15;;;16.80;99.90;;;;;;5090996;28;20217;-87
2022/08/29 06:49:00;;;;;;;6.82;5.95;;;17.10;99.90;;;;;;5095349;28;20224;-87
2022/08/29 06:51:31;;;;;;;7.60;5.40;;;17.40;99.90;;;;;;5087932;28;20573;-87
2022/08/29 06:53:58;;;;;;;6.85;5.53;;;17.70;99.90;;;;;;5095093;28;20304;-87
2022/08/29 06:56:25;;;;;;;7.28;6.45;;;17.80;99.90;;;;;;5093932;28;20237;-87
2022/08/29 06:58:52;;;;;;;7.03;5.75;;;17.80;99.90;;;;;;5086555;28;20231;-87
2022/08/29 07:01:20;;;;;;;9.45;6.05;;;17.80;99.90;;;;;;5090755;28;20230;-87
2022/08/29 07:03:47;;;;;;;9.75;6.25;;;17.80;99.90;;;;;;5085018;28;20231;-86
2022/08/29 07:06:18;;;;;;;8.63;6.60;;;17.80;99.90;;;;;;5093592;28;20710;-87
2022/08/29 07:08:45;;;;;;;6.40;5.80;;;17.80;99.90;;;;;;5093442;28;20224;-87
2022/08/29 07:11:12;;;;;;;8.48;6.90;;;17.90;99.90;;;;;;5092158;28;20220;-86
2022/08/29 07:13:39;;;;;;;8.05;7.20;;;18.00;99.90;;;;;;5094394;28;20235;-87
2022/08/29 07:16:08;;;;;;;7.95;6.45;;;18.00;99.90;;;;;;5093934;28;20223;-87
2022/08/29 07:18:35;;;;;;;8.82;6.80;;;18.10;99.90;;;;;;5097984;28;20219;-86
2022/08/29 07:21:05;;;;;;;6.80;6.20;;;18.10;99.90;;;;;;5091067;28;20538;-87
2022/08/29 07:23:41;;;;;;;7.28;6.57;;;18.20;99.90;;;;;;5091652;28;20215;-87
2022/08/29 07:26:21;;;;;;;11.05;7.15;;;18.30;99.90;;;;;;5090201;28;20215;-87
2022/08/29 07:28:49;;;;;;;9.13;7.03;;;18.40;99.90;;;;;;5093077;28;20211;-87
2022/08/29 07:31:16;;;;;;;11.05;7.63;;;18.50;99.90;;;;;;5085096;28;20221;-87
2022/08/29 07:33:47;;;;;;;7.40;6.60;;;18.60;99.90;;;;;;5089058;28;20342;-87
2022/08/29 07:36:14;;;;;;;8.07;6.78;;;18.70;98.10;;;;;;5093020;28;20227;-87
2022/08/29 07:38:42;;;;;;;7.25;6.28;;;18.80;98.10;;;;;;5087408;28;20228;-87
2022/08/29 07:41:13;;;;;;;8.07;7.28;;;18.90;96.30;;;;;;5086426;28;20232;-87
2022/08/29 07:43:40;;;;;;;7.90;6.80;;;19.00;96.90;;;;;;5088400;28;20265;-87
2022/08/29 07:46:07;;;;;;;7.03;6.43;;;18.90;97.00;;;;;;5091094;28;20220;-86
2022/08/29 07:48:34;;;;;;;7.13;6.43;;;18.90;96.70;;;;;;5088061;28;20216;-86
2022/08/29 07:51:01;;;;;;;6.53;5.97;;;19.10;96.00;;;;;;5092952;28;20299;-87
2022/08/29 07:53:28;;;;;;;6.85;6.20;;;19.20;96.70;;;;;;5097345;28;20219;-85
2022/08/29 07:56:05;;;;;;;6.70;6.00;;;19.20;95.00;;;;;;5104459;28;20228;-86
2022/08/29 07:58:32;;;;;;;6.72;6.05;;;19.30;94.70;;;;;;5097604;28;20224;-86
2022/08/29 08:00:59;;;;;;;7.40;6.00;;;19.30;95.40;;;;;;5094792;28;20695;-85
2022/08/29 08:03:29;;;;;;;7.28;6.60;;;19.60;96.40;;;;;;5097317;28;20220;-85
2022/08/29 08:05:59;;;;;;;8.15;6.75;;;19.70;95.20;;;;;;5092160;28;20227;-84
2022/08/29 08:08:26;;;;;;;7.20;6.55;;;19.70;94.80;;;;;;5098985;28;20208;-87
2022/08/29 08:10:53;;;;;;;7.05;6.28;;;19.70;94.70;;;;;;5091120;28;21802;-84
2022/08/29 08:13:22;;;;;;;9.43;6.70;;;19.70;94.90;;;;;;5097558;28;20216;-86
2022/08/29 08:15:49;;;;;;;8.63;6.80;;;19.80;95.40;;;;;;5098700;28;20612;-86
2022/08/29 08:18:16;;;;;;;7.35;6.22;;;19.90;95.40;;;;;;5098243;28;20224;-86
2022/08/29 08:20:48;;;;;;;6.97;6.28;;;20.00;95.40;;;;;;5095331;28;20212;-87
2022/08/29 08:23:16;;;;;;;8.25;7.40;;;20.10;95.10;;;;;;5086093;28;20217;-85
2022/08/29 08:25:43;;;;;;;8.30;7.50;;;20.20;93.00;;;;;;5092087;28;20212;-86
2022/08/29 08:28:14;;;;;;;8.18;7.32;;;20.20;92.20;;;;;;5088975;28;20242;-86
2022/08/29 08:30:42;;;;;;;7.75;6.93;;;20.50;92.70;;;;;;5088787;28;20219;-84
2022/08/29 08:33:11;;;;;;;8.23;7.43;;;20.60;92.20;;;;;;5092944;28;20216;-85
2022/08/29 08:35:39;;;;;;;9.25;8.23;;;20.60;92.10;;;;;;5092641;28;20242;-83
2022/08/29 08:38:07;;;;;;;8.73;7.80;;;20.60;92.80;;;;;;5093416;28;20235;-84
2022/08/29 08:40:36;;;;;;;8.30;7.50;;;20.60;92.80;;;;;;5094506;28;20222;-84
2022/08/29 08:43:03;;;;;;;11.20;9.52;;;20.60;92.80;;;;;;5094670;27;20227;-84
2022/08/29 08:45:38;;;;;;;10.52;9.45;;;20.70;92.30;;;;;;5095083;28;20226;-85
2022/08/29 08:48:17;;;;;;;10.02;8.73;;;21.00;92.10;;;;;;5102844;28;20674;-85
2022/08/29 08:50:51;;;;;;;8.82;7.93;;;21.00;92.00;;;;;;5103177;28;20220;-81
2022/08/29 08:53:21;;;;;;;8.57;7.78;;;21.10;92.20;;;;;;5100242;27;20744;-83
2022/08/29 08:55:52;;;;;;;9.40;8.02;;;21.30;92.10;;;;;;5105944;28;20220;-84
2022/08/29 08:58:28;;;;;;;7.95;6.68;;;21.70;89.50;;;;;;5099595;28;20273;-84
2022/08/29 09:00:59;;;;;;;8.82;7.88;;;22.00;88.10;;;;;;5109712;28;20558;-84
2022/08/29 09:03:55;;;;;;;7.90;7.10;;;22.20;89.60;;;;;;5112224;28;20248;-84
2022/08/29 09:06:31;;;;;;;9.30;7.10;;;22.50;82.60;;;;;;5114233;28;20204;-84
2022/08/29 09:09:09;;;;;;;7.88;7.15;;;22.50;84.00;;;;;;5108151;28;20565;-84
2022/08/29 09:11:44;;;;;;;9.77;5.88;;;22.90;80.40;;;;;;5114786;28;20684;-81
2022/08/29 09:14:26;;;;;;;9.05;6.55;;;23.30;77.40;;;;;;5111149;27;20199;-82
2022/08/29 09:16:57;;;;;;;8.98;5.75;;;24.50;62.30;;;;;;5114154;28;20223;-82
2022/08/29 09:19:25;;;;;;;5.80;5.10;;;25.60;56.80;;;;;;5114792;28;20642;-82
2022/08/29 09:21:56;;;;;;;6.57;5.00;;;27.30;40.00;;;;;;5113997;28;20192;-82
2022/08/29 09:24:28;;;;;;;5.22;4.82;;;28.50;32.50;;;;;;5105798;27;20199;-82
2022/08/29 09:26:56;;;;;;;6.25;5.32;;;28.40;28.80;;;;;;5114228;28;20207;-82
2022/08/29 09:29:25;;;;;;;6.60;6.00;;;28.40;29.20;;;;;;5108368;28;20196;-86
2022/08/29 09:32:07;;;;;;;6.65;5.70;;;29.50;25.10;;;;;;5107822;28;20207;-83
2022/08/29 09:34:38;;;;;;;6.93;5.28;;;30.40;21.90;;;;;;5107333;28;20562;-83
2022/08/29 09:37:21;;;;;;;6.07;5.30;;;31.40;19.70;;;;;;5110711;28;20230;-83
2022/08/29 09:39:55;;;;;;;6.80;5.60;;;31.70;19.10;;;;;;5107716;28;20269;-84
2022/08/29 09:42:23;;;;;;;5.82;5.32;;;31.70;18.00;;;;;;5105066;28;20200;-83
2022/08/29 09:44:54;;;;;;;6.93;5.10;;;31.70;17.40;;;;;;5109832;28;20583;-83
2022/08/29 09:47:23;;;;;;;5.85;5.35;;;30.90;19.70;;;;;;5113308;28;20199;-83
2022/08/29 09:50:06;;;;;;;6.40;5.78;;;30.10;20.80;;;;;;5111136;28;20203;-83
2022/08/29 09:52:35;;;;;;;5.85;5.30;;;29.20;23.80;;;;;;5112979;28;20195;-83
2022/08/29 09:55:27;;;;;;;7.75;5.72;;;27.60;26.70;;;;;;5109995;28;20199;-83
2022/08/29 09:57:58;;;;;;;7.00;5.32;;;26.30;32.20;;;;;;5113041;28;20677;-83
2022/08/29 10:00:28;;;;;;;5.35;4.85;;;27.10;35.20;;;;;;5113392;27;20196;-83
2022/08/29 10:02:57;;;;;;;7.93;5.43;;;28.20;27.20;;;;;;5108443;28;20196;-83
2022/08/29 10:05:40;;;;;;;5.72;5.05;;;29.70;21.60;;;;;;5114336;28;20200;-83
2022/08/29 10:08:26;;;;;;;9.05;5.40;;;29.60;20.00;;;;;;5107268;28;20206;-83
2022/08/29 10:10:57;;;;;;;5.80;5.13;;;29.20;20.00;;;;;;5106823;28;20195;-83
2022/08/29 10:13:32;;;;;;;5.72;5.20;;;29.50;22.90;;;;;;5111520;28;20685;-83
2022/08/29 10:16:06;;;;;;;5.40;5.00;;;29.70;20.90;;;;;;5110553;28;20228;-83
2022/08/29 10:18:43;;;;;;;5.93;5.03;;;28.90;22.20;;;;;;5105931;28;20195;-83
2022/08/29 10:21:25;;;;;;;5.35;4.80;;;28.10;25.30;;;;;;5113187;28;20207;-83
2022/08/29 10:24:24;;;;;;;5.88;5.10;;;27.40;27.60;;;;;;5099800;28;20195;-84
2022/08/29 10:26:59;;;;;;;8.20;5.55;;;26.70;29.40;;;;;;5107896;28;20206;-83
2022/08/29 10:29:44;;;;;;;5.88;5.38;;;26.20;31.70;;;;;;5106878;28;20209;-83
2022/08/29 10:32:44;;;;;;;6.38;5.78;;;25.60;36.60;;;;;;5112950;28;20200;-83
2022/08/29 10:35:16;;;;;;;8.77;5.55;;;25.70;36.70;;;;;;5110774;28;20199;-83
2022/08/29 10:37:55;;;;;;;6.45;5.05;;;25.30;36.40;;;;;;5113695;28;20223;-82
2022/08/29 10:40:27;;;;;;;5.88;5.22;;;24.80;36.40;;;;;;5114308;28;20191;-81
2022/08/29 10:43:30;;;;;;;6.20;5.60;;;24.30;46.20;;;;;;5107226;28;20204;-86
2022/08/29 10:46:15;;;;;;;7.80;5.78;;;24.20;47.60;;;;;;5052345;28;20207;-80
2022/08/29 10:48:54;;;;;;;6.32;5.22;;;23.90;50.40;;;;;;5044389;28;20275;-81
2022/08/29 10:51:25;;;;;;;6.07;5.47;;;23.70;62.70;;;;;;5044959;28;20213;-82
2022/08/29 10:54:02;;;;;;;7.18;5.63;;;23.50;59.10;;;;;;5039983;28;20191;-83
2022/08/29 10:56:37;;;;;;;6.60;5.90;;;23.40;60.40;;;;;;5046299;28;20767;-83
2022/08/29 10:59:13;;;;;;;6.65;5.35;;;23.40;65.80;;;;;;5049395;28;20221;-82
2022/08/29 11:02:00;;;;;;;8.60;5.80;;;23.60;61.40;;;;;;5041228;28;20209;-82
2022/08/29 11:04:34;;;;;;;6.82;5.25;;;23.70;55.40;;;;;;5040435;28;20202;-81
2022/08/29 11:07:09;;;;;;;6.25;5.65;;;24.50;54.60;;;;;;5056959;28;20197;-82
2022/08/29 11:09:43;;;;;;;5.60;5.10;;;25.10;44.30;;;;;;5046440;28;20225;-85
2022/08/29 11:12:15;;;;;;;8.02;5.30;;;25.50;36.50;;;;;;5046091;28;20619;-80
2022/08/29 11:14:52;;;;;;;6.88;5.50;;;25.30;42.30;;;;;;5042659;28;20205;-80
2022/08/29 11:17:23;;;;;;;8.18;5.40;;;25.10;36.30;;;;;;5041869;28;20252;-80
2022/08/29 11:20:00;;;;;;;5.80;5.20;;;25.20;38.00;;;;;;5038420;28;20202;-80
2022/08/29 11:22:33;;;;;;;7.32;5.10;;;25.50;48.60;;;;;;5067112;28;20196;-80
2022/08/29 11:25:07;;;;;;;6.28;5.28;;;26.10;38.60;;;;;;5114730;28;20200;-80
2022/08/29 11:27:44;;;;;;;5.22;4.72;;;26.30;37.00;;;;;;5107670;28;20202;-83
2022/08/29 11:30:17;;;;;;;7.45;6.07;;;26.90;37.50;;;;;;5102266;28;20536;-83
2022/08/29 11:32:52;;;;;;;6.10;5.10;;;27.00;30.40;;;;;;5104325;28;20206;-83
2022/08/29 11:35:28;;;;;;;7.00;5.70;;;27.10;33.60;;;;;;5105205;28;20202;-82
2022/08/29 11:38:37;;;;;;;6.85;5.25;;;27.10;33.60;;;;;;5110254;28;20233;-82
2022/08/29 11:41:27;;;;;;;6.07;4.97;;;27.10;33.20;;;;;;5103516;28;20292;-84
2022/08/29 11:44:19;;;;;;;6.20;5.25;;;27.20;29.30;;;;;;5109133;28;20219;-84
2022/08/29 11:46:49;;;;;;;6.95;5.13;;;27.60;28.90;;;;;;5105541;28;20214;-83
2022/08/29 11:49:37;;;;;;;7.78;4.93;;;27.70;28.70;;;;;;5113010;28;20207;-83
2022/08/29 11:52:22;;;;;;;5.70;4.63;;;27.40;26.50;;;;;;5105704;28;20569;-85
2022/08/29 11:55:05;;;;;;;5.88;4.10;;;26.90;27.40;;;;;;5115390;28;20192;-85
2022/08/29 11:57:52;;;;;;;6.07;5.13;;;26.70;24.20;;;;;;5067811;28;20598;-83
2022/08/29 12:00:51;;;;;;;4.55;4.03;;;26.60;26.40;;;;;;5066717;28;20193;-84
2022/08/29 12:03:45;;;;;;;4.97;3.75;;;26.60;25.40;;;;;;5057888;28;21234;-84
2022/08/29 12:06:26;;;;;;;4.90;4.40;;;26.50;27.40;;;;;;5058205;28;20651;-88
2022/08/29 12:09:00;;;;;;;6.60;5.03;;;26.60;26.20;;;;;;5058235;28;20207;-87
2022/08/29 12:12:00;;;;;;;6.20;5.43;;;26.90;26.60;;;;;;5054346;28;20193;-86
2022/08/29 12:14:34;;;;;;;6.75;5.20;;;26.80;27.90;;;;;;5053624;28;20228;-86
2022/08/29 12:17:07;;;;;;;6.55;4.63;;;26.20;30.40;;;;;;5066889;28;20224;-83
2022/08/29 12:19:49;;;;;;;5.43;5.00;;;25.80;30.60;;;;;;5062970;28;20287;-81
2022/08/29 12:22:55;;;;;;;6.30;4.95;;;25.50;30.90;;;;;;5062358;28;20212;-80
2022/08/29 12:25:45;;;;;;;6.22;5.07;;;25.20;31.90;;;;;;5062762;28;20194;-83
2022/08/29 12:28:44;;;;;;;5.70;5.10;;;24.90;32.00;;;;;;5061556;28;20205;-83
2022/08/29 12:31:26;;;;;;;6.05;5.45;;;25.00;33.00;;;;;;5041768;28;20223;-81
2022/08/29 12:34:36;;;;;;;7.30;6.05;;;25.10;36.30;;;;;;5063429;28;20231;-80
2022/08/29 12:37:37;;;;;;;10.23;6.20;;;24.90;35.10;;;;;;5103303;28;20716;-82
2022/08/29 12:40:30;;;;;;;6.10;5.28;;;24.90;37.40;;;;;;5074131;28;20187;-80
2022/08/29 12:43:41;;;;;;;5.80;5.10;;;25.30;36.40;;;;;;5109079;27;20291;-81
2022/08/29 12:46:12;;;;;;;5.93;5.30;;;25.80;33.40;;;;;;5064520;28;20247;-81
2022/08/29 12:48:46;;;;;;;11.88;5.68;;;26.20;32.30;;;;;;5072244;28;20206;-81
2022/08/29 12:51:35;;;;;;;6.85;5.78;;;26.10;33.00;;;;;;5072595;28;20240;-81
2022/08/29 12:54:02;;;;;;;5.95;5.18;;;25.50;32.80;;;;;;5073643;28;20204;-81
2022/08/29 12:56:29;;;;;;;6.72;5.63;;;25.20;36.30;;;;;;5072227;28;20205;-81
2022/08/29 12:58:58;;;;;;;7.60;5.35;;;25.00;36.30;;;;;;5066912;28;20250;-80
2022/08/29 13:01:31;;;;;;;5.93;5.30;;;24.70;36.00;;;;;;5070272;28;20193;-81
2022/08/29 13:04:03;;;;;;;8.43;5.10;;;24.60;35.90;;;;;;5065214;28;20205;-80
2022/08/29 13:06:31;;;;;;;7.25;4.95;;;24.50;36.70;;;;;;5071822;28;20296;-80
2022/08/29 13:08:59;;;;;;;5.55;4.85;;;24.50;37.50;;;;;;5076712;28;20252;-80
2022/08/29 13:11:29;;;;;;;6.13;5.43;;;24.50;35.80;;;;;;5074471;28;20189;-80